Time;durP1;ratioP1;P1;durP2;ratioP2;P2;SDS_P1;SDS_P2;PMS_P1;PMS_P2;Temp;Humidity;BMP_temperature;BMP_pressure;BME280_temperature;BME280_humidity;BME280_pressure;Samples;Min_cycle;Max_cycle;Signal;HPM_P1;HPM_P2
2022/06/18 00:01:33;;;;;;;5.05;3.05;;;21.60;99.90;;;;;;5054366;28;20029;-67
2022/06/18 00:04:10;;;;;;;7.63;3.33;;;20.90;99.90;;;;;;5037243;28;20045;-67
2022/06/18 00:06:50;;;;;;;7.38;2.90;;;20.70;99.90;;;;;;5022680;28;20056;-67
2022/06/18 00:09:20;;;;;;;11.25;3.40;;;20.60;99.90;;;;;;5024040;28;20395;-67
2022/06/18 00:14:32;;;;;;;4.65;3.00;;;21.00;99.90;;;;;;5039570;28;20053;-67
2022/06/18 00:16:57;;;;;;;5.40;3.45;;;21.20;99.90;;;;;;5038305;28;20083;-67
2022/06/18 00:19:23;;;;;;;9.35;3.55;;;20.70;99.90;;;;;;5057663;28;20415;-66
2022/06/18 00:21:50;;;;;;;6.82;4.13;;;22.50;99.90;;;;;;5039316;28;20040;-67
2022/06/18 00:24:19;;;;;;;6.68;3.13;;;20.80;99.90;;;;;;5057591;28;20037;-66
2022/06/18 00:26:45;;;;;;;7.93;4.05;;;20.70;99.90;;;;;;5022548;28;20036;-66
2022/06/18 00:29:14;;;;;;;5.43;3.35;;;22.60;99.90;;;;;;5038940;28;20051;-66
2022/06/18 00:31:40;;;;;;;6.25;3.58;;;20.70;99.90;;;;;;5039829;28;20471;-66
2022/06/18 00:34:06;;;;;;;9.73;3.72;;;20.80;99.90;;;;;;5039625;28;20045;-67
2022/06/18 00:36:32;;;;;;;6.72;3.60;;;20.60;99.90;;;;;;5038790;28;20123;-67
2022/06/18 00:38:58;;;;;;;5.32;3.50;;;20.60;99.90;;;;;;5057295;28;20406;-67
2022/06/18 00:41:26;;;;;;;4.68;3.22;;;21.10;99.90;;;;;;5057299;28;20120;-66
2022/06/18 00:44:04;;;;;;;6.55;3.20;;;20.70;99.90;;;;;;5056124;28;20545;-67
2022/06/18 00:46:33;;;;;;;7.50;4.03;;;20.50;99.90;;;;;;5046839;28;20439;-67
2022/06/18 00:49:09;;;;;;;7.35;3.85;;;20.50;99.90;;;;;;5038702;28;20045;-67
2022/06/18 00:51:47;;;;;;;7.60;4.57;;;20.80;99.90;;;;;;5056341;28;20043;-66
2022/06/18 00:54:38;;;;;;;7.00;4.15;;;20.40;99.90;;;;;;5038576;28;20108;-67
2022/06/18 00:57:12;;;;;;;10.23;5.43;;;20.30;99.90;;;;;;5039034;28;20048;-67
2022/06/18 00:59:45;;;;;;;8.02;4.50;;;20.40;99.90;;;;;;5022568;28;20056;-67
2022/06/18 01:02:21;;;;;;;11.52;5.13;;;20.20;99.90;;;;;;5038537;28;20041;-67
2022/06/18 01:04:47;;;;;;;8.20;4.97;;;20.20;99.90;;;;;;5039219;28;20044;-67
2022/06/18 01:07:32;;;;;;;10.13;5.32;;;20.30;99.90;;;;;;5038590;28;20052;-66
2022/06/18 01:09:59;;;;;;;6.60;4.60;;;20.00;99.90;;;;;;5038606;28;20091;-66
2022/06/18 01:12:25;;;;;;;7.85;5.30;;;20.00;99.90;;;;;;5056436;28;20048;-66
2022/06/18 01:15:00;;;;;;;10.13;4.60;;;20.40;99.90;;;;;;5027746;28;20045;-66
2022/06/18 01:17:28;;;;;;;9.73;5.35;;;20.30;99.90;;;;;;5034376;28;20040;-66
2022/06/18 01:19:54;;;;;;;8.38;5.70;;;20.80;99.90;;;;;;5056720;28;20076;-68
2022/06/18 01:22:43;;;;;;;9.45;6.15;;;20.10;99.90;;;;;;5038920;28;20084;-67
2022/06/18 01:25:09;;;;;;;11.70;6.18;;;19.80;99.90;;;;;;5038364;28;20045;-67
2022/06/18 01:27:36;;;;;;;11.43;5.95;;;19.60;99.90;;;;;;5056030;28;20076;-67
2022/06/18 01:30:08;;;;;;;8.23;6.15;;;19.80;99.90;;;;;;5055777;28;20474;-67
2022/06/18 01:32:34;;;;;;;10.90;6.10;;;19.80;99.90;;;;;;5020309;28;20045;-67
2022/06/18 01:35:00;;;;;;;9.32;6.25;;;19.50;99.90;;;;;;5037726;28;20037;-66
2022/06/18 01:37:26;;;;;;;9.60;6.45;;;21.00;99.90;;;;;;5055056;28;20041;-66
2022/06/18 01:39:52;;;;;;;12.65;6.50;;;19.60;99.90;;;;;;5055818;28;20108;-67
2022/06/18 01:42:29;;;;;;;9.13;5.57;;;19.60;99.90;;;;;;5055651;28;20105;-67
2022/06/18 01:45:09;;;;;;;10.38;6.40;;;19.60;99.90;;;;;;5037459;28;20135;-66
2022/06/18 01:48:06;;;;;;;8.18;5.80;;;19.80;99.90;;;;;;5038101;28;20047;-67
2022/06/18 01:50:44;;;;;;;9.52;5.65;;;19.90;99.90;;;;;;5013867;28;20041;-66
2022/06/18 01:53:17;;;;;;;7.80;6.00;;;19.60;99.90;;;;;;5055314;28;20048;-67
2022/06/18 01:55:50;;;;;;;8.98;6.43;;;19.80;99.90;;;;;;5055284;28;20604;-67
2022/06/18 01:58:25;;;;;;;9.52;6.28;;;19.80;99.90;;;;;;5037399;28;20052;-67
2022/06/18 02:00:57;;;;;;;12.32;6.90;;;19.60;99.90;;;;;;5055237;28;20041;-67
2022/06/18 02:03:23;;;;;;;9.40;7.28;;;19.40;99.90;;;;;;5036902;28;20107;-66
2022/06/18 02:05:48;;;;;;;9.95;7.10;;;20.30;99.90;;;;;;5016783;28;20045;-67
2022/06/18 02:08:17;;;;;;;8.63;6.88;;;19.50;99.90;;;;;;5048847;28;20045;-66
2022/06/18 02:10:59;;;;;;;10.30;7.35;;;19.30;99.90;;;;;;5055273;28;20029;-67
2022/06/18 02:13:31;;;;;;;13.32;7.60;;;19.20;99.90;;;;;;5054948;28;20048;-66
2022/06/18 02:15:58;;;;;;;10.13;8.40;;;19.40;99.90;;;;;;5037514;28;20083;-66
2022/06/18 02:18:25;;;;;;;13.07;7.82;;;20.40;99.90;;;;;;5055010;28;20044;-66
2022/06/18 02:20:53;;;;;;;13.23;8.02;;;20.10;99.90;;;;;;5037835;28;20409;-66
2022/06/18 02:23:20;;;;;;;13.48;7.88;;;19.00;99.90;;;;;;5020574;28;20052;-66
2022/06/18 02:25:46;;;;;;;17.98;8.88;;;19.30;99.90;;;;;;5036968;28;20056;-66
2022/06/18 02:28:23;;;;;;;10.95;8.20;;;19.30;99.90;;;;;;5054548;28;20033;-66
2022/06/18 02:30:49;;;;;;;11.07;8.75;;;19.30;99.90;;;;;;5036619;28;20386;-66
2022/06/18 02:33:38;;;;;;;10.10;7.97;;;18.80;99.90;;;;;;5037060;28;20047;-66
2022/06/18 02:36:17;;;;;;;15.85;9.80;;;19.10;99.90;;;;;;5020349;28;20423;-66
2022/06/18 02:38:45;;;;;;;14.00;9.50;;;18.90;99.90;;;;;;5036726;28;20080;-66
2022/06/18 02:41:11;;;;;;;14.95;9.00;;;19.40;99.90;;;;;;5019951;28;20398;-66
2022/06/18 02:43:42;;;;;;;11.65;8.82;;;19.10;99.90;;;;;;5056150;28;20033;-70
2022/06/18 02:46:08;;;;;;;14.27;9.00;;;19.20;99.90;;;;;;5022000;28;20055;-68
2022/06/18 02:48:37;;;;;;;10.60;9.07;;;20.50;99.90;;;;;;5056597;28;20025;-69
2022/06/18 02:51:03;;;;;;;14.25;9.00;;;19.00;99.90;;;;;;5037784;28;20037;-68
2022/06/18 02:53:30;;;;;;;14.57;9.25;;;19.90;99.90;;;;;;5055870;28;20068;-68
2022/06/18 02:56:03;;;;;;;12.95;8.93;;;18.70;99.90;;;;;;5021932;28;20049;-68
2022/06/18 02:58:35;;;;;;;16.90;10.05;;;18.90;99.90;;;;;;5021432;28;20475;-68
2022/06/18 03:01:08;;;;;;;11.70;8.02;;;20.70;99.90;;;;;;5038773;28;20053;-68
2022/06/18 03:03:40;;;;;;;10.75;8.27;;;19.10;99.90;;;;;;5038949;28;20048;-69
2022/06/18 03:06:08;;;;;;;11.02;9.35;;;20.30;99.90;;;;;;5056062;28;20124;-68
2022/06/18 03:08:35;;;;;;;13.52;8.82;;;20.10;99.90;;;;;;5038256;28;20053;-68
2022/06/18 03:13:46;;;;;;;13.48;10.07;;;18.80;99.90;;;;;;5038431;28;20053;-69
2022/06/18 03:16:14;;;;;;;16.65;9.77;;;18.90;99.90;;;;;;5056293;28;20064;-68
2022/06/18 03:18:42;;;;;;;16.35;10.05;;;18.80;99.90;;;;;;5038451;28;20048;-68
2022/06/18 03:21:35;;;;;;;14.38;9.90;;;18.80;99.90;;;;;;5038609;28;20053;-69
2022/06/18 03:24:01;;;;;;;18.67;10.38;;;18.70;99.90;;;;;;5055454;28;20069;-68
2022/06/18 03:26:28;;;;;;;14.27;10.45;;;18.50;99.90;;;;;;5056425;28;20033;-69
2022/06/18 03:28:54;;;;;;;14.80;10.13;;;18.80;99.90;;;;;;5038680;28;20045;-68
2022/06/18 03:31:20;;;;;;;15.57;11.02;;;19.10;99.90;;;;;;5055839;28;20071;-68
2022/06/18 03:33:47;;;;;;;17.50;10.70;;;18.60;99.90;;;;;;5056624;28;20041;-68
2022/06/18 03:36:17;;;;;;;17.30;10.13;;;18.30;99.90;;;;;;5037995;28;20059;-68
2022/06/18 03:38:43;;;;;;;18.60;11.25;;;18.60;99.90;;;;;;5039666;28;20068;-68
2022/06/18 03:41:10;;;;;;;15.85;10.63;;;18.50;99.90;;;;;;5041640;28;20535;-68
2022/06/18 03:43:36;;;;;;;18.05;10.73;;;18.40;99.90;;;;;;5059273;28;20041;-68
2022/06/18 03:46:07;;;;;;;18.02;11.20;;;18.40;99.90;;;;;;5024607;28;20040;-68
2022/06/18 03:48:48;;;;;;;15.90;9.77;;;18.50;99.90;;;;;;5028503;28;20112;-68
2022/06/18 03:51:14;;;;;;;18.30;10.77;;;18.20;99.90;;;;;;5059690;28;20127;-68
2022/06/18 03:53:41;;;;;;;18.35;10.45;;;18.40;99.90;;;;;;5041680;28;20044;-70
2022/06/18 03:56:09;;;;;;;14.50;10.43;;;18.40;99.90;;;;;;5041836;28;20041;-68
2022/06/18 03:58:35;;;;;;;17.67;11.02;;;18.50;99.90;;;;;;5059589;28;20097;-69
2022/06/18 04:01:01;;;;;;;18.48;10.98;;;18.50;99.90;;;;;;5041875;28;20064;-68
2022/06/18 04:03:27;;;;;;;17.52;10.68;;;18.50;99.90;;;;;;5041909;28;20056;-68
2022/06/18 04:05:52;;;;;;;15.45;10.38;;;19.90;99.90;;;;;;5060052;28;20442;-69
2022/06/18 04:08:20;;;;;;;19.98;10.73;;;19.70;99.90;;;;;;5039023;28;20090;-68
2022/06/18 04:10:46;;;;;;;23.67;11.27;;;18.60;99.90;;;;;;5030227;28;20119;-66
2022/06/18 04:13:11;;;;;;;14.88;10.95;;;18.40;99.90;;;;;;5021387;28;20045;-67
2022/06/18 04:15:37;;;;;;;19.55;11.50;;;19.10;99.90;;;;;;5033223;28;20053;-67
2022/06/18 04:18:04;;;;;;;21.67;12.38;;;18.40;99.90;;;;;;5016263;28;20160;-69
2022/06/18 04:20:36;;;;;;;16.45;10.70;;;18.30;99.90;;;;;;5000130;28;20132;-68
2022/06/18 04:23:02;;;;;;;16.58;11.70;;;18.60;99.90;;;;;;5037305;28;20562;-67
2022/06/18 04:25:28;;;;;;;18.33;11.88;;;18.50;99.90;;;;;;5013501;28;20056;-68
2022/06/18 04:27:57;;;;;;;25.77;11.85;;;18.60;99.90;;;;;;5043742;28;20060;-68
2022/06/18 04:30:24;;;;;;;20.17;12.75;;;18.40;99.90;;;;;;5045229;28;20120;-67
2022/06/18 04:32:50;;;;;;;23.38;12.98;;;18.40;99.90;;;;;;5044995;28;20032;-71
2022/06/18 04:35:15;;;;;;;25.88;13.82;;;18.90;99.90;;;;;;5036412;28;20029;-68
2022/06/18 04:37:43;;;;;;;27.00;13.32;;;18.60;99.90;;;;;;5042640;28;20548;-69
2022/06/18 04:40:31;;;;;;;25.30;14.20;;;18.60;99.90;;;;;;5043654;28;20406;-68
2022/06/18 04:43:01;;;;;;;24.38;12.93;;;18.80;99.90;;;;;;5044244;28;20053;-72
2022/06/18 04:45:28;;;;;;;20.15;12.30;;;18.90;99.90;;;;;;5025828;28;20044;-68
2022/06/18 04:47:54;;;;;;;23.98;15.13;;;18.80;99.90;;;;;;5025125;28;20049;-68
2022/06/18 04:50:26;;;;;;;29.35;14.27;;;18.70;99.90;;;;;;5026155;28;20364;-69
2022/06/18 04:52:51;;;;;;;25.98;14.85;;;20.10;99.90;;;;;;5009294;28;20057;-69
2022/06/18 04:55:17;;;;;;;28.63;14.35;;;19.00;99.90;;;;;;5043467;28;20044;-68
2022/06/18 04:57:43;;;;;;;22.65;13.35;;;19.00;99.90;;;;;;5025602;28;20110;-68
2022/06/18 05:00:09;;;;;;;27.35;12.75;;;19.20;99.90;;;;;;5045142;28;20487;-69
2022/06/18 05:02:36;;;;;;;27.25;13.52;;;19.40;99.90;;;;;;5045372;28;20128;-68
2022/06/18 05:05:04;;;;;;;23.80;12.25;;;19.60;99.90;;;;;;5045159;28;20041;-71
2022/06/18 05:07:30;;;;;;;21.95;14.15;;;19.40;99.90;;;;;;5026087;28;20057;-70
2022/06/18 05:09:55;;;;;;;25.30;14.02;;;19.60;99.90;;;;;;5044042;28;20408;-69
2022/06/18 05:12:21;;;;;;;21.67;12.68;;;19.80;99.90;;;;;;5026362;28;20530;-71
2022/06/18 05:14:47;;;;;;;24.20;13.52;;;20.00;99.90;;;;;;5044651;28;20146;-70
2022/06/18 05:17:18;;;;;;;23.45;13.05;;;20.30;99.90;;;;;;5025695;28;20041;-68
2022/06/18 05:19:43;;;;;;;20.08;14.23;;;20.20;99.90;;;;;;5025670;28;20091;-71
2022/06/18 05:22:09;;;;;;;25.08;14.18;;;20.70;99.90;;;;;;5043850;28;20124;-71
2022/06/18 05:24:35;;;;;;;21.30;13.20;;;20.20;99.90;;;;;;5009508;28;20128;-72
2022/06/18 05:27:01;;;;;;;23.33;13.13;;;20.30;99.90;;;;;;5044533;28;20376;-70
2022/06/18 05:29:27;;;;;;;24.50;13.70;;;20.30;99.90;;;;;;5026239;28;20044;-68
2022/06/18 05:31:53;;;;;;;19.20;12.15;;;20.40;99.90;;;;;;5043307;28;20485;-73
2022/06/18 05:34:19;;;;;;;24.38;12.88;;;20.70;99.90;;;;;;5043846;28;20047;-71
2022/06/18 05:36:44;;;;;;;22.08;13.38;;;21.10;99.90;;;;;;5044150;28;20138;-70
2022/06/18 05:39:15;;;;;;;20.30;12.95;;;21.30;99.90;;;;;;5025898;28;20053;-72
2022/06/18 05:41:41;;;;;;;26.38;12.73;;;21.50;99.90;;;;;;5044073;28;20094;-70
2022/06/18 05:44:06;;;;;;;23.25;12.60;;;21.60;99.90;;;;;;5025465;28;20053;-71
2022/06/18 05:46:33;;;;;;;22.15;12.45;;;21.60;99.90;;;;;;5025553;28;20443;-70
2022/06/18 05:48:58;;;;;;;19.85;11.40;;;21.20;99.90;;;;;;5043465;28;20453;-69
2022/06/18 05:51:24;;;;;;;24.15;12.50;;;21.50;99.90;;;;;;5025278;28;20148;-69
2022/06/18 05:53:50;;;;;;;23.08;11.60;;;21.60;99.90;;;;;;5032736;28;20041;-68
2022/06/18 05:56:16;;;;;;;20.20;12.23;;;21.60;99.90;;;;;;5025262;28;20047;-69
2022/06/18 05:58:42;;;;;;;19.33;10.98;;;21.60;99.90;;;;;;5024833;28;20506;-71
2022/06/18 06:01:08;;;;;;;24.08;11.25;;;21.10;99.90;;;;;;5024969;28;20607;-71
2022/06/18 06:03:33;;;;;;;20.65;11.63;;;21.90;99.90;;;;;;5047264;28;20101;-70
2022/06/18 06:06:00;;;;;;;28.67;10.80;;;22.00;99.90;;;;;;5046846;28;20041;-71
2022/06/18 06:08:26;;;;;;;26.10;11.45;;;22.20;99.90;;;;;;5029594;28;20167;-69
2022/06/18 06:13:36;;;;;;;21.90;9.40;;;22.10;99.90;;;;;;5018542;28;20079;-69
2022/06/18 06:16:02;;;;;;;17.13;10.38;;;22.00;99.90;;;;;;5017961;28;20053;-70
2022/06/18 06:18:29;;;;;;;21.65;10.07;;;22.10;99.90;;;;;;5047237;28;20037;-70
2022/06/18 06:20:56;;;;;;;18.88;9.80;;;22.20;99.90;;;;;;5047208;28;20037;-72
2022/06/18 06:23:22;;;;;;;17.38;9.95;;;22.10;99.90;;;;;;5047475;28;20049;-72
2022/06/18 06:25:49;;;;;;;19.42;9.57;;;22.20;99.90;;;;;;5029306;28;20056;-72
2022/06/18 06:28:18;;;;;;;16.83;10.35;;;20.20;99.90;;;;;;5027373;28;20045;-71
2022/06/18 06:30:44;;;;;;;16.98;9.02;;;22.40;99.90;;;;;;5043449;28;20053;-72
2022/06/18 06:33:10;;;;;;;21.52;7.90;;;22.60;99.90;;;;;;5024828;28;20041;-71
2022/06/18 06:35:35;;;;;;;17.35;8.43;;;22.80;99.90;;;;;;5032380;28;20087;-72
2022/06/18 06:38:02;;;;;;;18.90;8.52;;;22.60;99.90;;;;;;5022725;28;20033;-72
2022/06/18 06:40:29;;;;;;;16.40;8.05;;;22.10;99.90;;;;;;5043901;28;20057;-72
2022/06/18 06:42:56;;;;;;;15.35;7.10;;;22.40;99.90;;;;;;5024399;28;20120;-73
2022/06/18 06:45:25;;;;;;;22.25;7.85;;;22.20;99.90;;;;;;5024687;28;20441;-71
2022/06/18 06:47:51;;;;;;;13.98;6.93;;;22.20;99.90;;;;;;5024363;28;20045;-76
2022/06/18 06:50:18;;;;;;;18.13;7.75;;;22.20;99.90;;;;;;5024319;28;20478;-72
2022/06/18 06:52:45;;;;;;;17.40;6.63;;;22.00;99.90;;;;;;5042869;28;20079;-72
2022/06/18 06:58:08;;;;;;;12.10;6.00;;;22.30;99.90;;;;;;5024867;28;20053;-70
2022/06/18 07:00:42;;;;;;;10.73;5.72;;;22.20;99.90;;;;;;5024959;28;20106;-70
2022/06/18 07:03:11;;;;;;;12.48;6.78;;;22.30;99.90;;;;;;5024211;28;20064;-70
2022/06/18 07:05:36;;;;;;;22.35;6.70;;;22.30;99.90;;;;;;5024555;28;20152;-70
2022/06/18 07:08:02;;;;;;;12.10;5.93;;;22.40;99.90;;;;;;5042113;28;20556;-69
2022/06/18 07:10:28;;;;;;;11.52;5.22;;;22.50;99.90;;;;;;5042368;28;20041;-70
2022/06/18 07:12:53;;;;;;;11.00;4.47;;;22.20;99.90;;;;;;5023357;28;20136;-69
2022/06/18 07:15:20;;;;;;;15.45;5.20;;;22.50;99.90;;;;;;5028628;28;20135;-69
2022/06/18 07:17:45;;;;;;;17.48;5.38;;;22.50;99.90;;;;;;5028663;28;20044;-69
2022/06/18 07:20:17;;;;;;;16.67;5.47;;;22.20;99.90;;;;;;5028260;28;20498;-69
2022/06/18 07:22:43;;;;;;;14.05;4.90;;;22.70;99.90;;;;;;5046691;28;20539;-70
2022/06/18 07:25:10;;;;;;;16.38;5.22;;;22.40;99.90;;;;;;5029178;28;20494;-69
2022/06/18 07:27:36;;;;;;;10.40;4.43;;;22.50;99.90;;;;;;5028324;28;20502;-70
2022/06/18 07:30:03;;;;;;;9.65;4.78;;;22.30;99.90;;;;;;5028133;28;20670;-69
2022/06/18 07:32:29;;;;;;;9.68;4.88;;;22.30;99.90;;;;;;5027844;28;20049;-72
2022/06/18 07:34:55;;;;;;;10.57;4.43;;;22.40;99.90;;;;;;5047857;28;20443;-69
2022/06/18 07:37:21;;;;;;;12.57;4.68;;;22.20;99.90;;;;;;5048108;28;20379;-68
2022/06/18 07:39:47;;;;;;;9.75;4.40;;;22.40;99.90;;;;;;5044999;28;20041;-69
2022/06/18 07:42:14;;;;;;;12.00;4.30;;;22.50;99.90;;;;;;5044598;28;20041;-71
2022/06/18 07:44:40;;;;;;;19.25;5.80;;;22.50;99.90;;;;;;5044476;28;20128;-70
2022/06/18 07:47:05;;;;;;;9.73;4.43;;;23.40;99.90;;;;;;5039987;28;21364;-69
2022/06/18 07:49:31;;;;;;;9.52;3.97;;;22.60;99.90;;;;;;5030990;28;20153;-68
2022/06/18 07:51:57;;;;;;;10.00;4.63;;;22.40;99.90;;;;;;5030779;28;20048;-69
2022/06/18 07:54:23;;;;;;;10.82;4.32;;;22.50;99.90;;;;;;5039734;28;20049;-69
2022/06/18 07:56:49;;;;;;;8.82;3.85;;;22.50;99.90;;;;;;5043126;28;20048;-69
2022/06/18 07:59:16;;;;;;;10.85;4.15;;;22.60;99.90;;;;;;5013367;28;20144;-69
2022/06/18 08:01:42;;;;;;;11.10;4.18;;;22.80;99.90;;;;;;5044942;28;20033;-70
2022/06/18 08:04:08;;;;;;;8.52;3.63;;;24.60;99.90;;;;;;5031063;28;20678;-70
2022/06/18 08:06:34;;;;;;;10.52;3.88;;;24.30;99.90;;;;;;5030733;28;20072;-70
2022/06/18 08:08:59;;;;;;;9.07;3.78;;;22.70;99.90;;;;;;5032470;28;20526;-69
2022/06/18 08:11:28;;;;;;;9.55;3.50;;;22.80;99.90;;;;;;5052475;28;20033;-69
2022/06/18 08:13:55;;;;;;;7.40;3.53;;;22.90;99.90;;;;;;5041728;28;20422;-70
2022/06/18 08:16:21;;;;;;;11.25;3.20;;;22.70;99.90;;;;;;5046909;28;20095;-72
2022/06/18 08:18:47;;;;;;;9.23;3.30;;;25.30;99.90;;;;;;5018693;28;20045;-71
2022/06/18 08:21:23;;;;;;;9.07;2.78;;;24.60;99.90;;;;;;5034944;28;20037;-71
2022/06/18 08:23:51;;;;;;;9.90;3.47;;;23.30;99.90;;;;;;5029766;28;20053;-72
2022/06/18 08:26:18;;;;;;;8.07;3.47;;;23.50;99.90;;;;;;5037357;28;20120;-71
2022/06/18 08:28:43;;;;;;;6.68;2.60;;;23.20;99.90;;;;;;5034687;28;20038;-72
2022/06/18 08:31:10;;;;;;;10.77;3.08;;;23.30;99.90;;;;;;5040672;28;20043;-71
2022/06/18 08:33:36;;;;;;;7.45;3.28;;;23.30;99.90;;;;;;5032978;28;20048;-71
2022/06/18 08:36:05;;;;;;;7.63;4.05;;;24.20;99.90;;;;;;5031183;28;20552;-72
2022/06/18 08:38:32;;;;;;;6.18;2.80;;;23.10;99.90;;;;;;5028621;28;20052;-71
2022/06/18 08:41:19;;;;;;;6.47;2.70;;;23.30;99.90;;;;;;5053219;28;20056;-70
2022/06/18 08:44:03;;;;;;;8.63;3.47;;;23.40;99.90;;;;;;5032581;28;20041;-70
2022/06/18 08:46:38;;;;;;;9.27;3.22;;;23.30;99.90;;;;;;5023699;28;20045;-69
2022/06/18 08:49:03;;;;;;;5.20;2.60;;;23.50;99.90;;;;;;5015080;28;20045;-71
2022/06/18 08:51:48;;;;;;;7.65;2.90;;;23.40;99.90;;;;;;5022796;28;20042;-71
2022/06/18 08:54:43;;;;;;;7.05;2.75;;;23.60;99.90;;;;;;5050182;28;20040;-71
2022/06/18 08:57:39;;;;;;;10.27;2.90;;;23.20;99.90;;;;;;5021691;28;20106;-70
2022/06/18 09:00:11;;;;;;;8.20;2.75;;;23.30;99.90;;;;;;5031880;28;20083;-71
2022/06/18 09:03:07;;;;;;;8.13;3.47;;;23.60;99.90;;;;;;5034226;28;20510;-71
2022/06/18 09:05:41;;;;;;;;;;;23.60;99.90;;;;;;5016496;28;20049;-71
2022/06/18 09:08:28;;;;;;;6.28;2.80;;;23.30;99.90;;;;;;5039493;28;19929;-72
2022/06/18 09:11:20;;;;;;;11.25;3.40;;;23.50;99.90;;;;;;5051396;28;20099;-72
2022/06/18 09:13:54;;;;;;;6.80;2.55;;;23.70;99.90;;;;;;5013826;28;20061;-71
2022/06/18 09:16:25;;;;;;;5.70;2.45;;;23.80;99.90;;;;;;5043497;28;20440;-69
2022/06/18 09:18:56;;;;;;;7.63;1.70;;;25.10;99.90;;;;;;5023870;28;20184;-70
2022/06/18 09:21:33;;;;;;;10.35;2.17;;;24.00;99.90;;;;;;5012871;28;20077;-70
2022/06/18 09:24:02;;;;;;;6.57;2.40;;;24.10;99.90;;;;;;5029487;28;20209;-70
2022/06/18 09:26:45;;;;;;;8.20;1.77;;;23.90;99.90;;;;;;5017591;28;20163;-70
2022/06/18 09:29:27;;;;;;;5.65;1.77;;;25.30;99.90;;;;;;5029475;28;20040;-70
2022/06/18 09:32:30;;;;;;;3.50;1.30;;;23.90;99.90;;;;;;5026358;28;20048;-71
2022/06/18 09:35:04;;;;;;;4.75;1.38;;;24.10;99.90;;;;;;4978775;28;20057;-70
2022/06/18 09:37:50;;;;;;;5.03;1.33;;;24.10;99.90;;;;;;5009953;28;20091;-68
2022/06/18 09:40:29;;;;;;;3.65;1.45;;;24.10;99.90;;;;;;5031482;28;20048;-70
2022/06/18 09:43:19;;;;;;;4.25;0.88;;;24.30;99.90;;;;;;5012681;28;20081;-72
2022/06/18 09:45:53;;;;;;;4.40;1.10;;;24.20;99.90;;;;;;5034063;28;20079;-72
2022/06/18 09:48:18;;;;;;;2.72;0.73;;;22.30;99.90;;;;;;5015965;28;20557;-69
2022/06/18 09:50:51;;;;;;;2.90;0.68;;;24.10;99.90;;;;;;5025551;28;20037;-68
2022/06/18 09:53:19;;;;;;;3.92;1.20;;;24.30;99.90;;;;;;5043790;28;20143;-71
2022/06/18 09:55:49;;;;;;;2.83;0.77;;;24.60;99.90;;;;;;5024044;28;20410;-69
2022/06/18 09:58:35;;;;;;;4.70;0.95;;;24.50;99.90;;;;;;5113907;27;20499;-70
2022/06/18 10:01:01;;;;;;;2.45;0.82;;;24.40;99.90;;;;;;5128798;27;20044;-69
2022/06/18 10:09:05;;;;;;;3.80;1.15;;;25.00;99.90;;;;;;5088951;28;20052;-69
2022/06/18 10:11:31;;;;;;;3.42;0.90;;;24.90;99.90;;;;;;5091660;28;20075;-70
2022/06/18 10:14:13;;;;;;;4.07;0.95;;;24.80;99.90;;;;;;5073305;28;20413;-69
2022/06/18 10:17:11;;;;;;;2.47;0.73;;;24.50;99.90;;;;;;5092555;28;20440;-68
2022/06/18 10:20:01;;;;;;;2.65;0.80;;;24.70;99.90;;;;;;5097671;28;20039;-73
2022/06/18 10:22:39;;;;;;;4.00;1.25;;;24.70;99.90;;;;;;5083762;28;20398;-71
2022/06/18 10:25:42;;;;;;;4.25;0.93;;;25.10;99.90;;;;;;5069203;28;20055;-72
2022/06/18 10:28:22;;;;;;;4.60;0.93;;;24.90;99.90;;;;;;5080357;28;20048;-71
2022/06/18 10:31:12;;;;;;;4.40;1.00;;;24.90;99.90;;;;;;5092703;28;20048;-70
2022/06/18 10:34:00;;;;;;;2.47;1.00;;;26.40;99.90;;;;;;5092745;28;20856;-70
2022/06/18 10:37:09;;;;;;;6.63;1.38;;;25.10;99.90;;;;;;5093945;28;20129;-70
2022/06/18 10:39:59;;;;;;;3.58;0.80;;;24.90;99.90;;;;;;5016864;28;20041;-70
2022/06/18 10:42:36;;;;;;;3.13;0.95;;;26.60;99.90;;;;;;5093816;28;20051;-69
2022/06/18 10:45:34;;;;;;;3.13;1.05;;;25.00;99.90;;;;;;5095284;28;20517;-67
2022/06/18 10:48:00;;;;;;;2.90;1.33;;;25.00;99.90;;;;;;5080841;28;20052;-66
2022/06/18 10:50:26;;;;;;;5.70;1.20;;;25.20;99.90;;;;;;5080846;28;20117;-68
2022/06/18 10:52:59;;;;;;;3.78;1.20;;;25.00;99.90;;;;;;5080985;28;20113;-70
2022/06/18 10:55:25;;;;;;;3.67;1.30;;;25.30;99.90;;;;;;5082247;28;20470;-68
2022/06/18 10:57:51;;;;;;;2.58;0.90;;;24.90;99.90;;;;;;5083327;28;20090;-69
2022/06/18 11:00:27;;;;;;;4.70;1.00;;;25.20;99.90;;;;;;5076881;28;20144;-68
2022/06/18 11:02:55;;;;;;;4.70;1.08;;;25.20;99.90;;;;;;5063211;28;20094;-67
2022/06/18 11:05:29;;;;;;;2.97;0.98;;;25.30;99.90;;;;;;5080740;28;20056;-71
2022/06/18 11:07:59;;;;;;;5.35;1.60;;;25.40;99.90;;;;;;5066609;28;20120;-71
2022/06/18 11:10:36;;;;;;;5.57;1.38;;;25.40;99.90;;;;;;5053371;28;20819;-72
2022/06/18 11:13:03;;;;;;;5.78;1.00;;;25.20;99.90;;;;;;5072312;28;20497;-70
2022/06/18 11:15:35;;;;;;;3.35;0.70;;;25.10;99.90;;;;;;5056512;28;20114;-71
2022/06/18 11:18:14;;;;;;;3.78;0.73;;;25.10;99.90;;;;;;5073681;28;20033;-70
2022/06/18 11:20:59;;;;;;;3.00;0.85;;;25.30;99.90;;;;;;5074877;28;20032;-70
2022/06/18 11:23:26;;;;;;;4.82;0.73;;;25.10;99.90;;;;;;5068448;28;20397;-71
2022/06/18 11:25:57;;;;;;;3.17;1.00;;;25.20;99.90;;;;;;5069821;28;20032;-70
2022/06/18 11:28:33;;;;;;;4.35;0.80;;;25.20;99.90;;;;;;5073734;28;20398;-71
2022/06/18 11:30:59;;;;;;;4.82;1.17;;;25.30;99.90;;;;;;5074640;28;20062;-70
2022/06/18 11:33:40;;;;;;;2.55;0.88;;;25.20;99.90;;;;;;5073365;28;20139;-70
2022/06/18 11:36:19;;;;;;;3.45;1.15;;;25.30;99.90;;;;;;5074506;28;20038;-71
2022/06/18 11:38:57;;;;;;;2.25;0.77;;;25.30;99.90;;;;;;5073283;28;20055;-71
2022/06/18 11:41:31;;;;;;;4.47;1.27;;;25.40;99.90;;;;;;5073176;28;20119;-70
2022/06/18 11:44:21;;;;;;;2.17;0.70;;;25.10;99.90;;;;;;5074416;28;20064;-73
2022/06/18 11:46:52;;;;;;;3.53;0.60;;;25.30;99.90;;;;;;5074391;28;20040;-70
2022/06/18 11:49:32;;;;;;;9.45;1.45;;;25.30;99.90;;;;;;5074708;28;20064;-70
2022/06/18 11:52:02;;;;;;;2.13;0.65;;;25.00;99.90;;;;;;5060688;28;20044;-70
2022/06/18 11:54:41;;;;;;;4.03;0.80;;;25.40;99.90;;;;;;5073305;28;20044;-70
2022/06/18 11:57:35;;;;;;;2.15;0.70;;;26.20;99.90;;;;;;5060488;28;20518;-70
2022/06/18 12:00:17;;;;;;;3.47;0.70;;;25.60;99.90;;;;;;5073139;28;20048;-70
2022/06/18 12:03:16;;;;;;;2.00;0.50;;;25.50;99.90;;;;;;5074251;28;20040;-71
2022/06/18 12:05:47;;;;;;;2.55;0.60;;;25.50;99.90;;;;;;5061771;28;20029;-71
2022/06/18 12:08:21;;;;;;;3.53;0.73;;;26.70;99.90;;;;;;5074110;28;20036;-70
2022/06/18 12:11:13;;;;;;;4.20;0.60;;;25.10;99.90;;;;;;5074109;28;20516;-71
2022/06/18 12:13:48;;;;;;;3.72;0.80;;;25.30;99.90;;;;;;5070272;28;20053;-71
2022/06/18 12:16:34;;;;;;;4.55;0.85;;;25.20;99.90;;;;;;5073875;28;20036;-71
2022/06/18 12:19:15;;;;;;;2.25;0.60;;;25.20;99.90;;;;;;5072940;28;20129;-70
2022/06/18 12:22:00;;;;;;;4.57;1.20;;;25.30;99.90;;;;;;5071737;28;20048;-70
2022/06/18 12:24:44;;;;;;;4.78;0.88;;;25.40;99.90;;;;;;5056754;28;20422;-71
2022/06/18 12:27:13;;;;;;;5.35;0.98;;;25.40;99.90;;;;;;5064614;28;20106;-70
2022/06/18 12:30:14;;;;;;;4.38;1.17;;;26.10;99.90;;;;;;5072138;28;20086;-70
2022/06/18 12:32:48;;;;;;;6.10;0.75;;;25.30;99.90;;;;;;5073158;28;20050;-71
2022/06/18 12:35:33;;;;;;;5.07;0.68;;;26.70;99.90;;;;;;5073522;28;20554;-71
2022/06/18 12:38:10;;;;;;;3.85;0.77;;;25.50;99.90;;;;;;5072825;28;20529;-71
2022/06/18 12:40:56;;;;;;;2.63;0.60;;;25.70;99.90;;;;;;5072129;28;20044;-70
2022/06/18 12:43:31;;;;;;;5.70;1.30;;;26.00;99.90;;;;;;5071868;28;20051;-70
2022/06/18 12:46:37;;;;;;;4.30;0.50;;;25.70;99.90;;;;;;5073434;28;20131;-70
2022/06/18 12:49:05;;;;;;;6.63;0.63;;;25.80;99.90;;;;;;5062539;28;20380;-70
2022/06/18 12:51:49;;;;;;;4.03;0.68;;;25.60;99.90;;;;;;5071481;28;20044;-71
2022/06/18 12:54:37;;;;;;;4.43;0.40;;;25.50;99.90;;;;;;5073329;28;20127;-70
2022/06/18 12:57:17;;;;;;;3.08;0.70;;;25.40;99.90;;;;;;5057836;28;20052;-70
2022/06/18 13:00:05;;;;;;;3.80;0.75;;;25.60;99.90;;;;;;5073019;28;20086;-72
2022/06/18 13:03:00;;;;;;;4.57;0.80;;;25.20;99.90;;;;;;5072972;28;20062;-70
2022/06/18 13:05:46;;;;;;;4.10;0.50;;;25.40;99.90;;;;;;5073244;28;20037;-70
2022/06/18 13:08:37;;;;;;;2.53;0.45;;;25.50;99.90;;;;;;5072570;28;20406;-70
2022/06/18 13:11:02;;;;;;;2.35;0.50;;;25.30;99.90;;;;;;5071466;28;20402;-71
2022/06/18 13:13:40;;;;;;;2.88;0.52;;;25.70;99.90;;;;;;5071608;28;20044;-71
2022/06/18 13:16:14;;;;;;;2.67;0.32;;;26.30;99.90;;;;;;5071603;28;20106;-71
2022/06/18 13:18:52;;;;;;;3.00;0.60;;;25.30;99.90;;;;;;5071141;28;20119;-71
2022/06/18 13:21:18;;;;;;;2.95;0.52;;;25.10;99.90;;;;;;5071485;28;20039;-70
2022/06/18 13:29:27;;;;;;;8.05;0.82;;;25.10;99.90;;;;;;5072480;28;20044;-70